createdAt,value
2019-04-30T00:01:48.530Z,10.20
2019-04-30T00:04:29.981Z,10.20
2019-04-30T00:06:58.892Z,10.20
2019-04-30T00:09:28.574Z,10.20
2019-04-30T00:12:00.993Z,10.30
2019-04-30T00:14:36.852Z,10.30
2019-04-30T00:16:59.642Z,10.20
2019-04-30T00:19:28.863Z,10.20
2019-04-30T00:22:00.437Z,10.30
2019-04-30T00:24:28.993Z,10.30
2019-04-30T00:26:58.211Z,10.30
2019-04-30T00:29:30.879Z,10.20
2019-04-30T00:32:04.530Z,10.20
2019-04-30T00:34:30.951Z,10.30
2019-04-30T00:37:00.326Z,10.30
2019-04-30T00:39:29.688Z,10.20
2019-04-30T00:41:58.904Z,10.20
2019-04-30T00:44:28.537Z,10.20
2019-04-30T00:47:00.759Z,10.20
2019-04-30T00:49:28.818Z,10.20
2019-04-30T00:51:58.338Z,10.20
2019-04-30T00:54:30.616Z,10.10
2019-04-30T00:57:03.773Z,10.10
2019-04-30T00:59:29.592Z,10.10
2019-04-30T01:02:20.116Z,10.10
2019-04-30T01:04:47.268Z,10.10
2019-04-30T01:07:16.673Z,10.10
2019-04-30T01:09:49.442Z,10.10
2019-04-30T01:12:24.291Z,10.10
2019-04-30T01:14:49.660Z,10.20
2019-04-30T01:17:18.973Z,10.10
2019-04-30T01:19:51.160Z,10.10
2019-04-30T01:22:27.761Z,10.10
2019-04-30T01:24:51.780Z,10.10
2019-04-30T01:27:21.017Z,10.10
2019-04-30T01:29:51.973Z,10.10
2019-04-30T01:32:21.323Z,10.10
2019-04-30T01:34:53.866Z,10.10
2019-04-30T01:37:28.357Z,10.00
2019-04-30T01:39:52.493Z,10.10
2019-04-30T01:42:21.745Z,10.10
2019-04-30T01:44:53.812Z,10.10
2019-04-30T01:47:27.838Z,10.10
2019-04-30T01:49:55.951Z,10.10
2019-04-30T01:52:29.183Z,10.10
2019-04-30T01:54:58.639Z,10.10
2019-04-30T01:57:40.570Z,10.10
2019-04-30T02:00:26.793Z,10.10
2019-04-30T02:02:56.069Z,10.10
2019-04-30T02:05:25.359Z,10.10
2019-04-30T02:07:54.573Z,10.10
2019-04-30T02:10:23.789Z,10.10
2019-04-30T02:12:53.185Z,10.10
2019-04-30T02:15:22.392Z,10.10
2019-04-30T02:17:51.613Z,10.10
2019-04-30T02:20:20.854Z,10.20
2019-04-30T02:22:50.076Z,10.20
2019-04-30T02:25:19.626Z,10.20
2019-04-30T02:27:49.002Z,10.20
2019-04-30T02:30:20.846Z,10.20
2019-04-30T02:32:52.238Z,10.20
2019-04-30T02:35:40.894Z,10.20
2019-04-30T02:38:14.639Z,10.20
2019-04-30T02:40:44.852Z,10.20
2019-04-30T02:43:15.699Z,10.20
2019-04-30T02:45:44.924Z,10.20
2019-04-30T02:48:14.166Z,10.20
2019-04-30T02:50:43.430Z,10.20
2019-04-30T02:53:50.542Z,10.20
2019-04-30T02:56:20.649Z,10.20
2019-04-30T02:58:50.686Z,10.20
2019-04-30T03:01:20.497Z,10.20
2019-04-30T03:03:50.299Z,10.30
2019-04-30T03:06:20.364Z,10.20
2019-04-30T03:08:51.380Z,10.20
2019-04-30T03:11:21.070Z,10.20
2019-04-30T03:13:50.543Z,10.30
2019-04-30T03:16:23.954Z,10.30
2019-04-30T03:19:06.368Z,10.30
2019-04-30T03:21:45.562Z,10.30
2019-04-30T03:24:14.793Z,10.30
2019-04-30T03:26:44.015Z,10.30
2019-04-30T03:29:13.221Z,10.30
2019-04-30T03:31:45.006Z,10.30
2019-04-30T03:34:19.505Z,10.30
2019-04-30T03:36:44.274Z,10.30
2019-04-30T03:39:13.500Z,10.30
2019-04-30T03:41:45.704Z,10.30
2019-04-30T03:44:21.515Z,10.30
2019-04-30T03:46:45.888Z,10.30
2019-04-30T03:49:15.124Z,10.30
2019-04-30T03:51:45.241Z,10.30
2019-04-30T03:54:19.108Z,10.40
2019-04-30T03:56:50.150Z,10.30
2019-04-30T03:59:19.912Z,10.30
2019-04-30T04:02:05.432Z,10.40
2019-04-30T04:04:53.735Z,10.30
2019-04-30T04:07:44.810Z,10.30
2019-04-30T04:10:29.731Z,10.30
2019-04-30T04:12:59.699Z,10.30
2019-04-30T04:15:29.895Z,10.30
2019-04-30T04:18:00.333Z,10.30
2019-04-30T04:20:30.018Z,10.30
2019-04-30T04:22:59.856Z,10.30
2019-04-30T04:25:29.916Z,10.30
2019-04-30T04:28:00.359Z,10.30
2019-04-30T04:30:30.058Z,10.30
2019-04-30T04:33:00.068Z,10.20
2019-04-30T04:35:30.095Z,10.30
2019-04-30T04:38:02.085Z,10.20
2019-04-30T04:40:31.307Z,10.30
2019-04-30T04:43:00.594Z,10.30
2019-04-30T04:45:30.490Z,10.40
2019-04-30T04:48:01.723Z,10.40
2019-04-30T04:50:30.941Z,10.40
2019-04-30T04:53:00.181Z,10.30
2019-04-30T04:55:29.978Z,10.30
2019-04-30T04:57:59.928Z,10.30
2019-04-30T05:00:36.546Z,10.40
2019-04-30T05:03:29.872Z,10.40
2019-04-30T05:06:01.910Z,10.40
2019-04-30T05:08:30.306Z,10.30
2019-04-30T05:11:01.930Z,10.30
2019-04-30T05:13:31.125Z,10.30
2019-04-30T05:16:00.362Z,10.30
2019-04-30T05:18:29.580Z,10.40
2019-04-30T05:20:59.127Z,10.40
2019-04-30T05:23:29.865Z,10.40
2019-04-30T05:25:59.421Z,10.40
2019-04-30T05:28:30.139Z,10.40
2019-04-30T05:30:59.528Z,10.30
2019-04-30T05:33:28.786Z,10.30
2019-04-30T05:35:59.460Z,10.40
2019-04-30T05:38:31.266Z,10.40
2019-04-30T05:40:59.744Z,10.50
2019-04-30T05:43:29.090Z,10.40
2019-04-30T05:45:58.679Z,10.40
2019-04-30T05:48:28.690Z,10.40
2019-04-30T05:50:59.172Z,10.50
2019-04-30T05:53:28.815Z,10.50
2019-04-30T05:55:59.338Z,10.40
2019-04-30T05:58:29.994Z,10.40
2019-04-30T06:00:59.850Z,10.40
2019-04-30T06:03:32.991Z,10.50
2019-04-30T06:06:00.182Z,10.40
2019-04-30T06:08:36.705Z,10.40
2019-04-30T06:11:13.024Z,10.50
2019-04-30T06:14:08.673Z,10.50
2019-04-30T06:16:39.332Z,10.40
2019-04-30T06:19:08.705Z,10.40
2019-04-30T06:21:39.086Z,10.40
2019-04-30T06:24:10.685Z,10.50
2019-04-30T06:26:39.410Z,10.60
2019-04-30T06:29:09.219Z,10.60
2019-04-30T06:31:40.387Z,10.70
2019-04-30T06:34:09.548Z,10.70
2019-04-30T06:36:50.882Z,10.70
2019-04-30T06:39:09.670Z,10.70
2019-04-30T06:41:40.819Z,10.70
2019-04-30T06:44:09.865Z,10.70
2019-04-30T06:46:39.234Z,10.70
2019-04-30T06:49:09.471Z,10.70
2019-04-30T06:51:38.995Z,10.70
2019-04-30T06:54:11.061Z,10.80
2019-04-30T06:56:40.487Z,11.00
2019-04-30T06:59:09.696Z,11.10
2019-04-30T07:01:38.945Z,11.10
2019-04-30T07:04:08.220Z,11.20
2019-04-30T07:06:43.919Z,11.30
2019-04-30T07:09:48.922Z,11.40
2019-04-30T07:12:25.177Z,11.30
2019-04-30T07:14:47.018Z,11.20
2019-04-30T07:17:16.255Z,11.20
2019-04-30T07:19:54.293Z,11.10
2019-04-30T07:22:16.461Z,11.20
2019-04-30T07:24:45.973Z,11.10
2019-04-30T07:27:15.184Z,11.10
2019-04-30T07:29:44.423Z,11.20
2019-04-30T07:32:13.625Z,11.30
2019-04-30T07:34:42.857Z,11.30
2019-04-30T07:37:20.534Z,11.30
2019-04-30T07:39:43.096Z,11.30
2019-04-30T07:42:12.311Z,11.30
2019-04-30T07:44:41.529Z,11.30
2019-04-30T07:47:10.793Z,11.40
2019-04-30T07:49:51.588Z,11.30
2019-04-30T07:52:14.485Z,11.40
2019-04-30T07:54:44.266Z,11.40
2019-04-30T07:57:13.498Z,11.30
2019-04-30T07:59:42.706Z,11.30
2019-04-30T08:02:14.588Z,11.40
2019-04-30T08:04:47.076Z,11.50
2019-04-30T08:07:16.390Z,11.50
2019-04-30T08:09:45.704Z,11.30
2019-04-30T08:12:22.137Z,11.40
2019-04-30T08:14:45.922Z,11.50
2019-04-30T08:17:15.149Z,11.50
2019-04-30T08:19:48.959Z,11.40
2019-04-30T08:22:19.690Z,11.50
2019-04-30T08:24:49.264Z,11.40
2019-04-30T08:27:19.628Z,11.50
2019-04-30T08:29:50.040Z,11.60
2019-04-30T08:32:19.413Z,11.40
2019-04-30T08:34:50.979Z,11.50
2019-04-30T08:37:20.432Z,11.60
2019-04-30T08:39:50.841Z,11.60
2019-04-30T08:42:30.998Z,11.70
2019-04-30T08:44:55.163Z,11.60
2019-04-30T08:47:24.367Z,11.80
2019-04-30T08:49:53.577Z,11.90
2019-04-30T08:52:22.892Z,11.60
2019-04-30T08:54:52.260Z,11.50
2019-04-30T08:57:21.494Z,11.50
2019-04-30T08:59:50.760Z,11.60
2019-04-30T09:02:19.989Z,11.60
2019-04-30T09:04:52.417Z,11.50
2019-04-30T09:07:21.633Z,11.60
2019-04-30T09:09:50.866Z,11.50
2019-04-30T09:12:20.144Z,11.40
2019-04-30T09:14:49.476Z,11.40
2019-04-30T09:17:19.922Z,11.30
2019-04-30T09:19:49.373Z,11.50
2019-04-30T09:22:19.460Z,11.60
2019-04-30T09:24:49.725Z,11.70
2019-04-30T09:27:21.130Z,11.60
2019-04-30T09:29:50.345Z,11.50
2019-04-30T09:32:19.584Z,11.60
2019-04-30T09:34:49.028Z,11.70
2019-04-30T09:37:18.836Z,11.70
2019-04-30T09:39:49.987Z,11.70
2019-04-30T09:42:21.216Z,11.70
2019-04-30T09:44:50.758Z,11.60
2019-04-30T09:47:20.222Z,11.40
2019-04-30T09:49:49.555Z,11.50
2019-04-30T09:52:19.708Z,11.60
2019-04-30T09:54:50.194Z,11.50
2019-04-30T09:57:20.056Z,11.50
2019-04-30T09:59:51.256Z,11.40
2019-04-30T10:02:21.769Z,11.30
2019-04-30T10:04:51.354Z,11.30
2019-04-30T10:07:21.512Z,11.30
2019-04-30T10:09:51.062Z,11.40
2019-04-30T10:12:20.454Z,11.30
2019-04-30T10:14:49.748Z,11.30
2019-04-30T10:17:25.889Z,11.40
2019-04-30T10:19:55.201Z,11.40
2019-04-30T10:22:24.924Z,11.50
2019-04-30T10:24:54.165Z,11.70
2019-04-30T10:27:23.462Z,11.70
2019-04-30T10:29:52.781Z,11.90
2019-04-30T10:32:22.015Z,12.00
2019-04-30T10:34:51.343Z,11.80
2019-04-30T10:37:20.774Z,12.00
2019-04-30T10:39:50.020Z,12.20
2019-04-30T10:42:19.238Z,12.20
2019-04-30T10:44:48.466Z,12.10
2019-04-30T10:47:19.278Z,12.00
2019-04-30T10:49:48.790Z,12.20
2019-04-30T10:52:19.324Z,12.40
2019-04-30T10:54:51.719Z,12.20
2019-04-30T10:57:22.204Z,12.10
2019-04-30T10:59:51.437Z,12.20
2019-04-30T11:02:23.776Z,12.30
2019-04-30T11:04:53.054Z,12.10
2019-04-30T11:07:22.319Z,12.10
2019-04-30T11:09:51.547Z,12.10
2019-04-30T11:12:20.793Z,12.20
2019-04-30T11:14:50.054Z,12.30
2019-04-30T11:17:20.947Z,12.30
2019-04-30T11:19:50.490Z,12.30
2019-04-30T11:22:20.442Z,12.30
2019-04-30T11:24:58.416Z,12.20
2019-04-30T11:27:21.532Z,12.20
2019-04-30T11:29:51.357Z,12.20
2019-04-30T11:32:23.326Z,12.20
2019-04-30T11:34:52.774Z,12.20
2019-04-30T11:37:21.993Z,12.30
2019-04-30T11:39:51.213Z,12.40
2019-04-30T11:42:20.431Z,12.40
2019-04-30T11:44:49.701Z,12.60
2019-04-30T11:47:33.028Z,12.40
2019-04-30T11:50:02.523Z,12.30
2019-04-30T11:52:31.787Z,12.20
2019-04-30T11:55:03.081Z,12.20
2019-04-30T11:57:32.317Z,12.20
2019-04-30T12:00:01.616Z,12.20
2019-04-30T12:02:52.834Z,12.20
2019-04-30T12:05:20.951Z,12.40
2019-04-30T12:07:55.486Z,12.50
2019-04-30T12:10:30.213Z,12.50
2019-04-30T12:12:59.429Z,12.40
2019-04-30T12:15:29.139Z,12.30
2019-04-30T12:17:58.578Z,12.20
2019-04-30T12:20:29.233Z,12.20
2019-04-30T12:22:59.152Z,12.30
2019-04-30T12:25:30.317Z,12.20
2019-04-30T12:27:59.677Z,12.10
2019-04-30T12:30:29.090Z,12.30
2019-04-30T12:33:00.669Z,12.30
2019-04-30T12:35:29.866Z,12.30
2019-04-30T12:38:19.120Z,12.20
2019-04-30T12:40:48.601Z,12.30
2019-04-30T12:43:17.872Z,12.40
2019-04-30T12:45:50.229Z,12.30
2019-04-30T12:48:33.612Z,12.30
2019-04-30T12:51:21.924Z,12.40
2019-04-30T12:53:55.144Z,12.40
2019-04-30T12:56:36.224Z,12.40
2019-04-30T12:59:05.421Z,12.50
2019-04-30T13:01:34.702Z,12.40
2019-04-30T13:04:04.045Z,12.30
2019-04-30T13:06:33.788Z,12.40
2019-04-30T13:09:05.011Z,12.40
2019-04-30T13:11:35.145Z,12.40
2019-04-30T13:14:05.515Z,12.30
2019-04-30T13:16:34.936Z,12.30
2019-04-30T13:19:04.205Z,12.50
2019-04-30T13:21:41.887Z,12.40
2019-04-30T13:24:15.375Z,12.30
2019-04-30T13:27:09.439Z,12.10
2019-04-30T13:30:20.534Z,12.20
2019-04-30T13:33:21.687Z,12.50
2019-04-30T13:35:58.857Z,12.30
2019-04-30T13:38:49.190Z,12.40
2019-04-30T13:41:18.756Z,12.40
2019-04-30T13:43:59.916Z,12.20
2019-04-30T13:46:36.213Z,12.00
2019-04-30T13:49:16.297Z,12.10
2019-04-30T13:51:45.550Z,12.20
2019-04-30T13:54:23.444Z,12.10
2019-04-30T13:56:56.835Z,12.10
2019-04-30T13:59:29.308Z,12.10
2019-04-30T14:02:06.100Z,12.10
2019-04-30T14:05:00.557Z,12.00
2019-04-30T14:07:50.798Z,11.80
2019-04-30T14:10:24.861Z,11.90
2019-04-30T14:13:01.728Z,11.90
2019-04-30T14:15:31.029Z,11.90
2019-04-30T14:18:30.963Z,11.90
2019-04-30T14:20:55.099Z,11.90
2019-04-30T14:23:40.536Z,11.90
2019-04-30T14:26:20.560Z,12.00
2019-04-30T14:28:52.416Z,11.90
2019-04-30T14:31:28.888Z,11.90
2019-04-30T14:34:04.495Z,11.90
2019-04-30T14:36:40.101Z,11.70
2019-04-30T14:39:23.976Z,11.70
2019-04-30T14:41:54.407Z,11.80
2019-04-30T14:44:31.005Z,11.70
2019-04-30T14:47:23.033Z,11.80
2019-04-30T14:50:14.129Z,11.80
2019-04-30T14:53:00.048Z,11.90
2019-04-30T14:55:55.617Z,11.90
2019-04-30T14:58:40.524Z,12.10
2019-04-30T15:01:32.438Z,12.00
2019-04-30T15:04:13.114Z,12.10
2019-04-30T15:06:48.671Z,12.30
2019-04-30T15:09:29.942Z,12.30
2019-04-30T15:12:00.457Z,12.20
2019-04-30T15:14:38.800Z,12.00
2019-04-30T15:17:09.314Z,12.10
2019-04-30T15:19:38.546Z,11.90
2019-04-30T15:22:09.106Z,11.80
2019-04-30T15:24:39.424Z,11.80
2019-04-30T15:27:09.282Z,12.00
2019-04-30T15:29:39.207Z,12.10
2019-04-30T15:32:08.870Z,12.00
2019-04-30T15:34:42.359Z,11.90
2019-04-30T15:37:19.262Z,11.80
2019-04-30T15:39:43.023Z,11.70
2019-04-30T15:42:13.135Z,11.60
2019-04-30T15:44:45.234Z,11.70
2019-04-30T15:47:13.421Z,11.60
2019-04-30T15:49:42.669Z,11.60
2019-04-30T15:52:11.984Z,11.80
2019-04-30T15:54:41.218Z,11.70
2019-04-30T15:57:10.456Z,11.80
2019-04-30T15:59:46.476Z,11.80
2019-04-30T16:02:34.861Z,11.80
2019-04-30T16:05:23.988Z,11.90
2019-04-30T16:08:08.914Z,12.10
2019-04-30T16:11:00.164Z,12.10
2019-04-30T16:13:32.116Z,12.20
2019-04-30T16:16:02.961Z,12.20
2019-04-30T16:18:45.632Z,12.40
2019-04-30T16:21:25.566Z,12.40
2019-04-30T16:23:59.154Z,12.40
2019-04-30T16:26:29.106Z,12.10
2019-04-30T16:28:58.662Z,11.80
2019-04-30T16:31:30.466Z,11.60
2019-04-30T16:33:59.706Z,11.70
2019-04-30T16:36:29.174Z,11.80
2019-04-30T16:38:58.726Z,11.90
2019-04-30T16:41:31.466Z,11.70
2019-04-30T16:43:59.452Z,11.80
2019-04-30T16:46:40.821Z,11.90
2019-04-30T16:49:25.093Z,11.60
2019-04-30T16:51:55.431Z,11.60
2019-04-30T16:54:25.287Z,11.60
2019-04-30T16:57:03.450Z,11.50
2019-04-30T16:59:40.097Z,11.50
2019-04-30T17:02:09.476Z,11.40
2019-04-30T17:04:49.407Z,11.50
2019-04-30T17:07:38.699Z,11.40
2019-04-30T17:10:16.310Z,11.30
2019-04-30T17:13:05.210Z,11.30
2019-04-30T17:15:35.438Z,11.30
2019-04-30T17:18:14.883Z,11.30
2019-04-30T17:20:44.152Z,11.10
2019-04-30T17:23:13.370Z,11.30
2019-04-30T17:25:42.590Z,11.30
2019-04-30T17:28:11.834Z,11.40
2019-04-30T17:30:41.332Z,11.30
2019-04-30T17:33:10.541Z,11.30
2019-04-30T17:35:39.863Z,11.30
2019-04-30T17:38:09.216Z,11.40
2019-04-30T17:40:38.966Z,11.40
2019-04-30T17:43:08.243Z,11.30
2019-04-30T17:45:39.177Z,11.30
2019-04-30T17:48:08.600Z,11.10
2019-04-30T17:50:39.513Z,11.10
2019-04-30T17:53:09.113Z,11.20
2019-04-30T17:55:39.143Z,11.20
2019-04-30T17:58:09.718Z,11.20
2019-04-30T18:00:44.858Z,11.10
2019-04-30T18:03:14.098Z,11.10
2019-04-30T18:05:43.337Z,11.00
2019-04-30T18:08:13.905Z,11.00
2019-04-30T18:10:43.134Z,10.90
2019-04-30T18:13:17.507Z,10.70
2019-04-30T18:15:48.356Z,10.70
2019-04-30T18:18:36.996Z,10.70
2019-04-30T18:21:19.023Z,10.70
2019-04-30T18:24:19.510Z,10.70
2019-04-30T18:26:56.442Z,10.80
2019-04-30T18:29:25.666Z,10.80
2019-04-30T18:31:55.015Z,10.80
2019-04-30T18:34:24.241Z,10.80
2019-04-30T18:36:53.531Z,10.70
2019-04-30T18:39:22.834Z,10.70
2019-04-30T18:41:52.068Z,10.60
2019-04-30T18:44:21.300Z,10.60
2019-04-30T18:46:50.561Z,10.50
2019-04-30T18:49:19.897Z,10.50
2019-04-30T18:51:49.291Z,10.50
2019-04-30T18:54:20.891Z,10.50
2019-04-30T18:56:49.526Z,10.60
2019-04-30T18:59:19.621Z,10.60
2019-04-30T19:01:49.529Z,10.50
2019-04-30T19:04:19.025Z,10.50
2019-04-30T19:06:48.923Z,10.60
2019-04-30T19:09:29.676Z,10.60
2019-04-30T19:12:16.421Z,10.50
2019-04-30T19:15:04.805Z,10.50
2019-04-30T19:17:51.811Z,10.50
2019-04-30T19:20:28.683Z,10.50
2019-04-30T19:22:58.054Z,10.60
2019-04-30T19:25:28.919Z,10.60
2019-04-30T19:28:09.617Z,10.60
2019-04-30T19:30:30.196Z,10.70
2019-04-30T19:33:03.347Z,10.60
2019-04-30T19:35:32.640Z,10.70
2019-04-30T19:38:01.983Z,10.60
2019-04-30T19:40:31.240Z,10.60
2019-04-30T19:43:00.533Z,10.70
2019-04-30T19:45:29.745Z,10.60
2019-04-30T19:47:59.037Z,10.60
2019-04-30T19:50:28.330Z,10.50
2019-04-30T19:52:58.768Z,10.60
2019-04-30T19:55:28.622Z,10.60
2019-04-30T19:57:59.872Z,10.60
2019-04-30T20:00:29.325Z,10.50
2019-04-30T20:03:00.038Z,10.40
2019-04-30T20:05:29.486Z,10.50
2019-04-30T20:07:59.197Z,10.60
2019-04-30T20:10:28.840Z,10.60
2019-04-30T20:12:58.808Z,10.60
2019-04-30T20:15:29.841Z,10.70
2019-04-30T20:18:01.045Z,10.70
2019-04-30T20:20:30.161Z,10.70
2019-04-30T20:22:59.408Z,10.70
2019-04-30T20:25:28.621Z,10.60
2019-04-30T20:27:57.905Z,10.60
2019-04-30T20:30:29.159Z,10.60
2019-04-30T20:32:59.452Z,10.70
2019-04-30T20:35:28.748Z,10.70
2019-04-30T20:38:32.201Z,10.60
2019-04-30T20:41:03.212Z,10.70
2019-04-30T20:43:32.704Z,10.60
2019-04-30T20:46:01.995Z,10.70
2019-04-30T20:48:31.237Z,10.70
2019-04-30T20:51:01.404Z,10.70
2019-04-30T20:53:30.884Z,10.70
2019-04-30T20:56:00.118Z,10.60
2019-04-30T20:58:29.357Z,10.60
2019-04-30T21:01:03.932Z,10.60
2019-04-30T21:03:29.689Z,10.60
2019-04-30T21:06:00.566Z,10.60
2019-04-30T21:08:29.969Z,10.60
2019-04-30T21:10:59.429Z,10.50
2019-04-30T21:13:29.486Z,10.40
2019-04-30T21:15:59.469Z,10.40
2019-04-30T21:18:32.345Z,10.40
2019-04-30T21:20:59.786Z,10.40
2019-04-30T21:23:29.396Z,10.30
2019-04-30T21:25:59.052Z,10.30
2019-04-30T21:28:29.760Z,10.30
2019-04-30T21:31:19.631Z,10.40
2019-04-30T21:33:50.560Z,10.40
2019-04-30T21:36:22.560Z,10.20
2019-04-30T21:38:51.932Z,10.40
2019-04-30T21:41:21.240Z,10.30
2019-04-30T21:43:50.463Z,10.30
2019-04-30T21:46:19.685Z,10.30
2019-04-30T21:48:48.921Z,10.40
2019-04-30T21:51:19.299Z,10.30
2019-04-30T21:53:50.356Z,10.20
2019-04-30T21:56:19.765Z,10.30
2019-04-30T21:58:49.057Z,10.30
2019-04-30T22:01:21.554Z,10.30
2019-04-30T22:03:51.006Z,10.30
2019-04-30T22:06:20.242Z,10.30
2019-04-30T22:08:49.466Z,10.30
2019-04-30T22:11:19.787Z,10.20
2019-04-30T22:13:49.457Z,10.20
2019-04-30T22:16:20.431Z,10.20
2019-04-30T22:18:50.338Z,10.10
2019-04-30T22:21:19.622Z,10.10
2019-04-30T22:23:48.988Z,10.00
2019-04-30T22:26:53.496Z,10.00
2019-04-30T22:29:22.740Z,10.00
2019-04-30T22:31:52.021Z,10.00
2019-04-30T22:34:21.324Z,10.10
2019-04-30T22:36:50.632Z,10.20
2019-04-30T22:39:41.569Z,10.20
2019-04-30T22:42:29.767Z,10.20
2019-04-30T22:44:59.837Z,10.20
2019-04-30T22:47:29.100Z,10.20
2019-04-30T22:50:00.751Z,10.20
2019-04-30T22:52:30.462Z,10.20
2019-04-30T22:54:59.718Z,10.20
2019-04-30T22:57:28.993Z,10.20
2019-04-30T22:59:58.262Z,10.20
2019-04-30T23:02:42.748Z,10.30
2019-04-30T23:05:13.948Z,10.30
2019-04-30T23:07:44.957Z,10.20
2019-04-30T23:10:18.633Z,10.30
2019-04-30T23:12:56.974Z,10.30
2019-04-30T23:15:26.253Z,10.30
2019-04-30T23:17:55.516Z,10.30
2019-04-30T23:20:24.749Z,10.20
2019-04-30T23:22:55.147Z,10.20
2019-04-30T23:25:24.453Z,10.30
2019-04-30T23:27:53.668Z,10.30
2019-04-30T23:30:26.009Z,10.30
2019-04-30T23:32:55.244Z,10.30
2019-04-30T23:35:26.736Z,10.30
2019-04-30T23:37:55.949Z,10.30
2019-04-30T23:40:26.798Z,10.30
2019-04-30T23:42:56.021Z,10.20
2019-04-30T23:45:25.248Z,10.20
2019-04-30T23:47:54.469Z,10.10
2019-04-30T23:50:23.699Z,10.00
2019-04-30T23:52:52.942Z,10.00
2019-04-30T23:55:22.298Z,10.00
2019-04-30T23:57:51.513Z,10.00
